^^
Grace C. Lehan Memorial Weather Station Historical Data
Daily Summary for September 10, 2021 Units:  Both    English   Metric
Daily Weekly Monthly Yearly
  High: Low: Average:
Temperature: 84.3 °F /  29.1 °C 60.5 °F /  15.8 °C 74.3 °F /  23.5 °C
Dew Point: 68.3 °F /  20.2 °C 50.6 °F /  10.3 °C 58 °F /  14.4 °C
Humidity: 83% 37.2% 59%
Wind Speed: 3.9mph /  6.3km/h - 0.6mph /  1km/h
Wind Gust: 13mph /  20.9km/h - -
Wind- - SSE
Pressure: 30.08 in /  1018.5 hPa 29.94 in /  1013.8 hPa -
Precipitation: 0.00 in /  0 mm    
 
 
Tabular Data for September 10, 2021
Time Temperature Dew Point Pressure Wind Wind Speed Wind Gust Humidity Rainfall Rate (Hourly) solar
00:00 75.6 °F /  24.2 °C 68.3 °F /  20.2 °C 29.95in /  1014.1hPa Calm   5mph /  8km/h 78% 0.00in /  0mm 0 W/m2
00:09 75.5 °F /  24.2 °C 67.4 °F /  19.7 °C 29.95in /  1014.1hPa Calm     76% 0.00in /  0mm 0 W/m2
00:14 75.4 °F /  24.1 °C 67 °F /  19.4 °C 29.95in /  1014.1hPa Calm   1mph /  1.6km/h 75.3% 0.00in /  0mm 0 W/m2
00:19 75.3 °F /  24.1 °C 66.8 °F /  19.3 °C 29.95in /  1014.1hPa Calm   1mph /  1.6km/h 75% 0.00in /  0mm 0 W/m2
00:24 75.2 °F /  24 °C 66.7 °F /  19.3 °C 29.95in /  1014.1hPa Calm   1mph /  1.6km/h 75% 0.00in /  0mm 0 W/m2
00:29 75.1 °F /  23.9 °C 66.3 °F /  19.1 °C 29.95in /  1014.1hPa Calm   1mph /  1.6km/h 74.2% 0.00in /  0mm 0 W/m2
00:34 74.9 °F /  23.8 °C 66.1 °F /  18.9 °C 29.95in /  1014.1hPa Calm   1mph /  1.6km/h 74% 0.00in /  0mm 0 W/m2
00:39 74.8 °F /  23.8 °C 65.9 °F /  18.8 °C 29.95in /  1014.1hPa NW 0.1mph /  0.2km/h 2mph /  3.2km/h 74% 0.00in /  0mm 0 W/m2
00:44 74.6 °F /  23.7 °C 65.8 °F /  18.8 °C 29.95in /  1014.1hPa Calm   2mph /  3.2km/h 74% 0.00in /  0mm 0 W/m2
00:49 74.4 °F /  23.6 °C 65.6 °F /  18.7 °C 29.94in /  1013.8hPa Calm   2mph /  3.2km/h 74% 0.00in /  0mm 0 W/m2
00:54 74.2 °F /  23.4 °C 65.3 °F /  18.5 °C 29.94in /  1013.8hPa Calm   2mph /  3.2km/h 73.7% 0.00in /  0mm 0 W/m2
00:59 74 °F /  23.3 °C 64.8 °F /  18.2 °C 29.94in /  1013.8hPa Calm   2mph /  3.2km/h 73% 0.00in /  0mm 0 W/m2
01:04 73.9 °F /  23.3 °C 64.7 °F /  18.2 °C 29.94in /  1013.8hPa Calm   2mph /  3.2km/h 73% 0.00in /  0mm 0 W/m2
01:09 73.7 °F /  23.2 °C 64.5 °F /  18.1 °C 29.94in /  1013.8hPa Calm   1mph /  1.6km/h 73% 0.00in /  0mm 0 W/m2
01:14 73.5 °F /  23.1 °C 64.4 °F /  18 °C 29.95in /  1014.1hPa Calm   1mph /  1.6km/h 73% 0.00in /  0mm 0 W/m2
01:19 73.4 °F /  23 °C 64.2 °F /  17.9 °C 29.95in /  1014.1hPa NW 0.4mph /  0.6km/h 4mph /  6.4km/h 73% 0.00in /  0mm 0 W/m2
01:24 73.2 °F /  22.9 °C 64 °F /  17.8 °C 29.95in /  1014.1hPa Calm   4mph /  6.4km/h 73% 0.00in /  0mm 0 W/m2
01:29 73.1 °F /  22.8 °C 63.9 °F /  17.7 °C 29.95in /  1014.1hPa Calm   4mph /  6.4km/h 73% 0.00in /  0mm 0 W/m2
01:34 72.9 °F /  22.7 °C 63.7 °F /  17.6 °C 29.95in /  1014.1hPa NW 0.1mph /  0.2km/h 4mph /  6.4km/h 73% 0.00in /  0mm 0 W/m2
01:39 72.8 °F /  22.7 °C 63.4 °F /  17.4 °C 29.95in /  1014.1hPa NW 0.1mph /  0.2km/h 2mph /  3.2km/h 72.4% 0.00in /  0mm 0 W/m2
01:44 72.6 °F /  22.6 °C 63.1 °F /  17.3 °C 29.95in /  1014.1hPa NW 0.1mph /  0.2km/h 2mph /  3.2km/h 72% 0.00in /  0mm 0 W/m2
01:49 72.5 °F /  22.5 °C 63 °F /  17.2 °C 29.95in /  1014.1hPa Calm   2mph /  3.2km/h 72% 0.00in /  0mm 0 W/m2
01:54 72.4 °F /  22.4 °C 62.9 °F /  17.2 °C 29.95in /  1014.1hPa NW 0.1mph /  0.2km/h 2mph /  3.2km/h 72% 0.00in /  0mm 0 W/m2
01:59 72.3 °F /  22.4 °C 62.8 °F /  17.1 °C 29.95in /  1014.1hPa Calm   2mph /  3.2km/h 72% 0.00in /  0mm 0 W/m2
02:04 72.2 °F /  22.3 °C 62.7 °F /  17.1 °C 29.95in /  1014.1hPa Calm   2mph /  3.2km/h 72% 0.00in /  0mm 0 W/m2
02:09 72.1 °F /  22.3 °C 62.6 °F /  17 °C 29.94in /  1013.8hPa Calm     72% 0.00in /  0mm 0 W/m2
02:14 72 °F /  22.2 °C 62.5 °F /  16.9 °C 29.95in /  1014.1hPa Calm     72% 0.00in /  0mm 0 W/m2
02:19 71.9 °F /  22.2 °C 62.4 °F /  16.9 °C 29.94in /  1013.8hPa Calm     72% 0.00in /  0mm 0 W/m2
02:24 71.8 °F /  22.1 °C 62.5 °F /  16.9 °C 29.95in /  1014.1hPa Calm     72.4% 0.00in /  0mm 0 W/m2
02:29 71.7 °F /  22.1 °C 62.5 °F /  16.9 °C 29.95in /  1014.1hPa Calm   1mph /  1.6km/h 72.7% 0.00in /  0mm 0 W/m2
02:34 71.6 °F /  22 °C 62.5 °F /  16.9 °C 29.95in /  1014.1hPa Calm   1mph /  1.6km/h 73% 0.00in /  0mm 0 W/m2
02:39 71.4 °F /  21.9 °C 62.3 °F /  16.8 °C 29.95in /  1014.1hPa Calm     73% 0.00in /  0mm 0 W/m2
02:44 71.3 °F /  21.8 °C 62.2 °F /  16.8 °C 29.95in /  1014.1hPa Calm     73% 0.00in /  0mm 0 W/m2
02:49 71.2 °F /  21.8 °C 62.2 °F /  16.8 °C 29.95in /  1014.1hPa Calm     73.3% 0.00in /  0mm 0 W/m2
02:54 71.1 °F /  21.7 °C 62.4 °F /  16.9 °C 29.95in /  1014.1hPa Calm     74% 0.00in /  0mm 0 W/m2
02:59 70.9 °F /  21.6 °C 62.2 °F /  16.8 °C 29.95in /  1014.1hPa Calm   1mph /  1.6km/h 74% 0.00in /  0mm 0 W/m2
03:03 70.8 °F /  21.6 °C 62.3 °F /  16.8 °C 29.95in /  1014.1hPa NW 0.1mph /  0.2km/h 1mph /  1.6km/h 74.4% 0.00in /  0mm 0 W/m2
03:30 70.2 °F /  21.2 °C 61.9 °F /  16.6 °C 29.94in /  1013.8hPa Calm   2mph /  3.2km/h 75% 0.00in /  0mm 0 W/m2
04:04 70.1 °F /  21.2 °C 62.9 °F /  17.2 °C 29.95in /  1014.1hPa Calm     78% 0.00in /  0mm 0 W/m2
04:09 70.1 °F /  21.2 °C 62.6 °F /  17 °C 29.95in /  1014.1hPa Calm     77.2% 0.00in /  0mm 0 W/m2
04:14 70.1 °F /  21.2 °C 62.6 °F /  17 °C 29.94in /  1013.8hPa Calm     77% 0.00in /  0mm 0 W/m2
04:19 70.1 °F /  21.2 °C 62.6 °F /  17 °C 29.95in /  1014.1hPa Calm     77% 0.00in /  0mm 0 W/m2
04:24 70 °F /  21.1 °C 62.5 °F /  16.9 °C 29.94in /  1013.8hPa Calm     77% 0.00in /  0mm 0 W/m2
04:29 69.9 °F /  21.1 °C 62.4 °F /  16.9 °C 29.94in /  1013.8hPa Calm     77% 0.00in /  0mm 0 W/m2
04:34 69.8 °F /  21 °C 62.5 °F /  16.9 °C 29.94in /  1013.8hPa Calm     77.4% 0.00in /  0mm 0 W/m2
04:39 69.7 °F /  20.9 °C 62.6 °F /  17 °C 29.94in /  1013.8hPa Calm     78% 0.00in /  0mm 0 W/m2
04:44 69.6 °F /  20.9 °C 62.7 °F /  17.1 °C 29.95in /  1014.1hPa Calm     78.9% 0.00in /  0mm 0 W/m2
04:49 69.4 °F /  20.8 °C 62.6 °F /  17 °C 29.95in /  1014.1hPa Calm     79% 0.00in /  0mm 0 W/m2
04:54 69.2 °F /  20.7 °C 62.5 °F /  16.9 °C 29.95in /  1014.1hPa Calm     79% 0.00in /  0mm 0 W/m2
04:59 69.1 °F /  20.6 °C 62.4 °F /  16.9 °C 29.95in /  1014.1hPa Calm     79.1% 0.00in /  0mm 0 W/m2
05:04 68.9 °F /  20.5 °C 62.5 °F /  16.9 °C 29.95in /  1014.1hPa Calm     80% 0.00in /  0mm 0 W/m2
05:09 68.8 °F /  20.4 °C 62.4 °F /  16.9 °C 29.95in /  1014.1hPa Calm     80% 0.00in /  0mm 0 W/m2
05:14 68.6 °F /  20.3 °C 62.2 °F /  16.8 °C 29.96in /  1014.4hPa Calm     80% 0.00in /  0mm 0 W/m2
05:19 68.4 °F /  20.2 °C 62.3 °F /  16.8 °C 29.96in /  1014.4hPa Calm     80.9% 0.00in /  0mm 0 W/m2
05:24 68.2 °F /  20.1 °C 62.2 °F /  16.8 °C 29.96in /  1014.4hPa Calm     81% 0.00in /  0mm 0 W/m2
05:29 68.1 °F /  20.1 °C 62.1 °F /  16.7 °C 29.96in /  1014.4hPa Calm     81.3% 0.00in /  0mm 0 W/m2
05:34 67.9 °F /  19.9 °C 62.2 °F /  16.8 °C 29.96in /  1014.4hPa Calm     82% 0.00in /  0mm 0 W/m2
05:39 67.7 °F /  19.8 °C 62.1 °F /  16.7 °C 29.96in /  1014.4hPa Calm     82% 0.00in /  0mm 0 W/m2
05:44 67.6 °F /  19.8 °C 61.9 °F /  16.6 °C 29.96in /  1014.4hPa Calm     82% 0.00in /  0mm 5 W/m2
05:49 67.4 °F /  19.7 °C 61.8 °F /  16.6 °C 29.97in /  1014.8hPa Calm     82.2% 0.00in /  0mm 7 W/m2
05:54 67.3 °F /  19.6 °C 61.9 °F /  16.6 °C 29.97in /  1014.8hPa Calm     82.9% 0.00in /  0mm 11 W/m2
05:59 67.2 °F /  19.6 °C 61.8 °F /  16.6 °C 29.97in /  1014.8hPa Calm     83% 0.00in /  0mm 16 W/m2
06:04 67 °F /  19.4 °C 61.7 °F /  16.5 °C 29.97in /  1014.8hPa Calm     83% 0.00in /  0mm 25 W/m2
06:09 66.9 °F /  19.4 °C 61.5 °F /  16.4 °C 29.97in /  1014.8hPa NW 0.1mph /  0.2km/h 1mph /  1.6km/h 82.5% 0.00in /  0mm 33 W/m2
06:14 66.9 °F /  19.4 °C 61.3 °F /  16.3 °C 29.97in /  1014.8hPa NNW 0.1mph /  0.2km/h 3mph /  4.8km/h 82.2% 0.00in /  0mm 39 W/m2
06:19 66.9 °F /  19.4 °C 61 °F /  16.1 °C 29.97in /  1014.8hPa NNW 0.2mph /  0.3km/h 4mph /  6.4km/h 81.3% 0.00in /  0mm 40 W/m2
06:24 67 °F /  19.4 °C 60.9 °F /  16.1 °C 29.97in /  1014.8hPa Calm   4mph /  6.4km/h 81% 0.00in /  0mm 51 W/m2
06:29 67.1 °F /  19.5 °C 60.8 °F /  16 °C 29.98in /  1015.1hPa NNW 0.2mph /  0.3km/h 4mph /  6.4km/h 80.3% 0.00in /  0mm 53 W/m2
06:34 67.2 °F /  19.6 °C 60.9 °F /  16.1 °C 29.98in /  1015.1hPa Calm   4mph /  6.4km/h 80% 0.00in /  0mm 54 W/m2
06:39 67.5 °F /  19.7 °C 60.8 °F /  16 °C 29.98in /  1015.1hPa NNW 0.2mph /  0.3km/h 4mph /  6.4km/h 79.1% 0.00in /  0mm 62 W/m2
06:44 67.8 °F /  19.9 °C 60.5 °F /  15.8 °C 29.98in /  1015.1hPa Calm   4mph /  6.4km/h 77.5% 0.00in /  0mm 69 W/m2
06:49 68.3 °F /  20.2 °C 60.6 °F /  15.9 °C 29.98in /  1015.1hPa NE 0.2mph /  0.3km/h 4mph /  6.4km/h 76.3% 0.00in /  0mm 77 W/m2
06:54 68.9 °F /  20.5 °C 60.2 °F /  15.7 °C 29.99in /  1015.5hPa NNE 0.3mph /  0.5km/h 4mph /  6.4km/h 73.9% 0.00in /  0mm 81 W/m2
06:59 69.4 °F /  20.8 °C 60.1 °F /  15.6 °C 29.99in /  1015.5hPa Calm   4mph /  6.4km/h 72.1% 0.00in /  0mm 84 W/m2
07:04 69.9 °F /  21.1 °C 59.8 °F /  15.4 °C 29.99in /  1015.5hPa NE 0.2mph /  0.3km/h 4mph /  6.4km/h 70.4% 0.00in /  0mm 88 W/m2
07:09 70.4 °F /  21.3 °C 59.5 °F /  15.3 °C 29.99in /  1015.5hPa East 0.9mph /  1.4km/h 4mph /  6.4km/h 68.5% 0.00in /  0mm 97 W/m2
07:14 70.7 °F /  21.5 °C 59.3 °F /  15.2 °C 30.00in /  1015.8hPa NE 0.7mph /  1.1km/h 5mph /  8km/h 67.2% 0.00in /  0mm 102 W/m2
07:19 71 °F /  21.7 °C 58.8 °F /  14.9 °C 30.00in /  1015.8hPa ENE 1.6mph /  2.6km/h 7mph /  11.3km/h 65.2% 0.00in /  0mm 102 W/m2
07:24 71 °F /  21.7 °C 58.2 °F /  14.6 °C 30.00in /  1015.8hPa East 0.9mph /  1.4km/h 7mph /  11.3km/h 63.8% 0.00in /  0mm 195 W/m2
07:29 70.9 °F /  21.6 °C 58 °F /  14.4 °C 30.00in /  1015.8hPa East 0.9mph /  1.4km/h 10mph /  16.1km/h 63.7% 0.00in /  0mm 195 W/m2
07:34 70.9 °F /  21.6 °C 58.5 °F /  14.7 °C 30.00in /  1015.8hPa NE 0.4mph /  0.6km/h 10mph /  16.1km/h 64.9% 0.00in /  0mm 369 W/m2
07:39 71.2 °F /  21.8 °C 58.2 °F /  14.6 °C 30.00in /  1015.8hPa NNE 0.5mph /  0.8km/h 5mph /  8km/h 63.5% 0.00in /  0mm 271 W/m2
07:44 71.6 °F /  22 °C 58.3 °F /  14.6 °C 30.00in /  1015.8hPa NE 2.1mph /  3.4km/h 7mph /  11.3km/h 62.9% 0.00in /  0mm 397 W/m2
07:49 72.1 °F /  22.3 °C 58.2 °F /  14.6 °C 30.00in /  1015.8hPa NNW 1.8mph /  2.9km/h 11mph /  17.7km/h 61.5% 0.00in /  0mm 378 W/m2
07:54 72.7 °F /  22.6 °C 58.4 °F /  14.7 °C 30.00in /  1015.8hPa NE 2mph /  3.2km/h 11mph /  17.7km/h 60.8% 0.00in /  0mm 378 W/m2
07:59 73.2 °F /  22.9 °C 58 °F /  14.4 °C 30.01in /  1016.1hPa ENE 1.2mph /  1.9km/h 11mph /  17.7km/h 58.9% 0.00in /  0mm 404 W/m2
08:04 73.9 °F /  23.3 °C 58.2 °F /  14.6 °C 30.01in /  1016.1hPa Calm     58% 0.00in /  0mm 427 W/m2
08:09 74.1 °F /  23.4 °C 57.9 °F /  14.4 °C 30.01in /  1016.1hPa NNW 0.9mph /  1.4km/h 9mph /  14.5km/h 57.1% 0.00in /  0mm 441 W/m2
08:14 74.3 °F /  23.5 °C 57.9 °F /  14.4 °C 30.01in /  1016.1hPa ENE 1.4mph /  2.3km/h 9mph /  14.5km/h 56.7% 0.00in /  0mm 459 W/m2
08:19 74.3 °F /  23.5 °C 58.1 °F /  14.5 °C 30.01in /  1016.1hPa North 1.7mph /  2.7km/h 10mph /  16.1km/h 56.9% 0.00in /  0mm 485 W/m2
08:24 74.7 °F /  23.7 °C 57.9 °F /  14.4 °C 30.01in /  1016.1hPa North 1.4mph /  2.3km/h 10mph /  16.1km/h 56% 0.00in /  0mm 496 W/m2
08:29 74.8 °F /  23.8 °C 57.4 °F /  14.1 °C 30.01in /  1016.1hPa ENE 0.9mph /  1.4km/h 10mph /  16.1km/h 54.7% 0.00in /  0mm 522 W/m2
08:34 75 °F /  23.9 °C 57.4 °F /  14.1 °C 30.01in /  1016.1hPa ENE 0.9mph /  1.4km/h 10mph /  16.1km/h 54.4% 0.00in /  0mm 547 W/m2
08:39 75.2 °F /  24 °C 58 °F /  14.4 °C 30.01in /  1016.1hPa ENE 0.9mph /  1.4km/h 10mph /  16.1km/h 55.1% 0.00in /  0mm 552 W/m2
08:44 75.6 °F /  24.2 °C 58.3 °F /  14.6 °C 30.01in /  1016.1hPa North 1.1mph /  1.8km/h 10mph /  16.1km/h 55% 0.00in /  0mm 577 W/m2
08:49 75.8 °F /  24.3 °C 57.8 °F /  14.3 °C 30.01in /  1016.1hPa NE 1mph /  1.6km/h 10mph /  16.1km/h 53.7% 0.00in /  0mm 561 W/m2
08:54 75.9 °F /  24.4 °C 58.2 °F /  14.6 °C 30.02in /  1016.5hPa NE 1.8mph /  2.9km/h 10mph /  16.1km/h 54.3% 0.00in /  0mm 566 W/m2
08:59 76 °F /  24.4 °C 57.5 °F /  14.2 °C 30.02in /  1016.5hPa NE 3.4mph /  5.5km/h 12mph /  19.3km/h 52.8% 0.00in /  0mm 580 W/m2
09:04 76 °F /  24.4 °C 57.5 °F /  14.2 °C 30.02in /  1016.5hPa NE 1.4mph /  2.3km/h 12mph /  19.3km/h 52.9% 0.00in /  0mm 592 W/m2
09:09 76.2 °F /  24.6 °C 58.4 °F /  14.7 °C 30.02in /  1016.5hPa ENE 1.1mph /  1.8km/h 9mph /  14.5km/h 54.1% 0.00in /  0mm 596 W/m2
09:14 76.5 °F /  24.7 °C 57.2 °F /  14 °C 30.02in /  1016.5hPa ENE 1.9mph /  3.1km/h 12mph /  19.3km/h 51.4% 0.00in /  0mm 592 W/m2
09:19 76.3 °F /  24.6 °C 56.2 °F /  13.4 °C 30.02in /  1016.5hPa ENE 3.9mph /  6.3km/h 12mph /  19.3km/h 49.7% 0.00in /  0mm 601 W/m2
09:24 76.3 °F /  24.6 °C 56.2 °F /  13.4 °C 30.02in /  1016.5hPa ENE 2.2mph /  3.5km/h 12mph /  19.3km/h 49.8% 0.00in /  0mm 633 W/m2
09:29 76.5 °F /  24.7 °C 56.4 °F /  13.6 °C 30.02in /  1016.5hPa ENE 1.9mph /  3.1km/h 12mph /  19.3km/h 49.8% 0.00in /  0mm 691 W/m2
09:34 76.9 °F /  24.9 °C 57.3 °F /  14.1 °C 30.02in /  1016.5hPa NE 2mph /  3.2km/h 12mph /  19.3km/h 50.8% 0.00in /  0mm 686 W/m2
09:39 77.4 °F /  25.2 °C 57.5 °F /  14.2 °C 30.02in /  1016.5hPa NE 1.4mph /  2.3km/h 8mph /  12.9km/h 50.3% 0.00in /  0mm 703 W/m2
09:44 78 °F /  25.6 °C 57.6 °F /  14.2 °C 30.02in /  1016.5hPa NE 2.2mph /  3.5km/h 8mph /  12.9km/h 49.4% 0.00in /  0mm 717 W/m2
09:49 78.8 °F /  26 °C 58.4 °F /  14.7 °C 30.02in /  1016.5hPa NNE 1.3mph /  2.1km/h 8mph /  12.9km/h 49.6% 0.00in /  0mm 763 W/m2
09:54 79 °F /  26.1 °C 57.3 °F /  14.1 °C 30.02in /  1016.5hPa ENE 0.8mph /  1.3km/h 8mph /  12.9km/h 47.4% 0.00in /  0mm 779 W/m2
09:59 78.7 °F /  25.9 °C 58.2 °F /  14.6 °C 30.02in /  1016.5hPa North 1.8mph /  2.9km/h 11mph /  17.7km/h 49.3% 0.00in /  0mm 786 W/m2
10:04 78.8 °F /  26 °C 58.7 °F /  14.8 °C 30.02in /  1016.5hPa North 0.7mph /  1.1km/h 11mph /  17.7km/h 50.1% 0.00in /  0mm 768 W/m2
10:09 79.2 °F /  26.2 °C 58.4 °F /  14.7 °C 30.02in /  1016.5hPa NNW 2.1mph /  3.4km/h 13mph /  20.9km/h 48.9% 0.00in /  0mm 802 W/m2
10:14 79.5 °F /  26.4 °C 57.9 °F /  14.4 °C 30.02in /  1016.5hPa NW 1.5mph /  2.4km/h 13mph /  20.9km/h 47.6% 0.00in /  0mm 816 W/m2
10:19 79.3 °F /  26.3 °C 57.7 °F /  14.3 °C 30.02in /  1016.5hPa NE 1.4mph /  2.3km/h 13mph /  20.9km/h 47.5% 0.00in /  0mm 751 W/m2
10:24 79.2 °F /  26.2 °C 57.7 °F /  14.3 °C 30.02in /  1016.5hPa NNE 2.4mph /  3.9km/h 13mph /  20.9km/h 47.8% 0.00in /  0mm 823 W/m2
10:29 79.3 °F /  26.3 °C 57.4 °F /  14.1 °C 30.03in /  1016.8hPa NE 0.8mph /  1.3km/h 13mph /  20.9km/h 47.1% 0.00in /  0mm 856 W/m2
10:34 79.3 °F /  26.3 °C 57.3 °F /  14.1 °C 30.03in /  1016.8hPa NE 1.8mph /  2.9km/h 13mph /  20.9km/h 46.9% 0.00in /  0mm 814 W/m2
10:39 79.6 °F /  26.4 °C 58.6 °F /  14.8 °C 30.02in /  1016.5hPa NNE 1.1mph /  1.8km/h 7mph /  11.3km/h 48.7% 0.00in /  0mm 807 W/m2
10:44 79.8 °F /  26.6 °C 57.8 °F /  14.3 °C 30.03in /  1016.8hPa ENE 2mph /  3.2km/h 9mph /  14.5km/h 47% 0.00in /  0mm 742 W/m2
10:49 79.6 °F /  26.4 °C 57.3 °F /  14.1 °C 30.03in /  1016.8hPa ENE 2.6mph /  4.2km/h 9mph /  14.5km/h 46.5% 0.00in /  0mm 817 W/m2
10:54 79.4 °F /  26.3 °C 57.6 °F /  14.2 °C 30.03in /  1016.8hPa NE 0.8mph /  1.3km/h 9mph /  14.5km/h 47.2% 0.00in /  0mm 904 W/m2
10:59 79.7 °F /  26.5 °C 58.5 °F /  14.7 °C 30.03in /  1016.8hPa NE 0.6mph /  1km/h 9mph /  14.5km/h 48.4% 0.00in /  0mm 918 W/m2
11:04 80.1 °F /  26.7 °C 58.2 °F /  14.6 °C 30.03in /  1016.8hPa NE 2mph /  3.2km/h 9mph /  14.5km/h 47.2% 0.00in /  0mm 919 W/m2
11:09 80.7 °F /  27.1 °C 58.9 °F /  14.9 °C 30.03in /  1016.8hPa NE 1.7mph /  2.7km/h 7mph /  11.3km/h 47.5% 0.00in /  0mm 882 W/m2
11:14 80.9 °F /  27.2 °C 58.3 °F /  14.6 °C 30.03in /  1016.8hPa East 0.2mph /  0.3km/h 7mph /  11.3km/h 46.2% 0.00in /  0mm 835 W/m2
11:19 81 °F /  27.2 °C 58.9 °F /  14.9 °C 30.03in /  1016.8hPa NW 2.5mph /  4km/h 7mph /  11.3km/h 47.1% 0.00in /  0mm 926 W/m2
11:24 81.2 °F /  27.3 °C 59.2 °F /  15.1 °C 30.03in /  1016.8hPa North 0.4mph /  0.6km/h 7mph /  11.3km/h 47.2% 0.00in /  0mm 810 W/m2
11:29 81.4 °F /  27.4 °C 59.3 °F /  15.2 °C 30.03in /  1016.8hPa NNE 0.4mph /  0.6km/h 7mph /  11.3km/h 47.1% 0.00in /  0mm 868 W/m2
11:34 81.5 °F /  27.5 °C 58.9 °F /  14.9 °C 30.03in /  1016.8hPa East 0.9mph /  1.4km/h 7mph /  11.3km/h 46.3% 0.00in /  0mm 868 W/m2
11:39 81.5 °F /  27.5 °C 58.8 °F /  14.9 °C 30.03in /  1016.8hPa NE 2.4mph /  3.9km/h 6mph /  9.7km/h 46.2% 0.00in /  0mm 944 W/m2
11:44 82.1 °F /  27.8 °C 60.1 °F /  15.6 °C 30.03in /  1016.8hPa NE 0.3mph /  0.5km/h 6mph /  9.7km/h 47.4% 0.00in /  0mm 933 W/m2
11:49 82.2 °F /  27.9 °C 58.6 °F /  14.8 °C 30.02in /  1016.5hPa NE 0.1mph /  0.2km/h 6mph /  9.7km/h 44.8% 0.00in /  0mm 838 W/m2
11:54 81.8 °F /  27.7 °C 59.1 °F /  15.1 °C 30.02in /  1016.5hPa NE 2.4mph /  3.9km/h 9mph /  14.5km/h 46.1% 0.00in /  0mm 976 W/m2
11:59 81.6 °F /  27.6 °C 58.9 °F /  14.9 °C 30.02in /  1016.5hPa NE 1.1mph /  1.8km/h 9mph /  14.5km/h 46.1% 0.00in /  0mm 976 W/m2
12:00 81.7 °F /  27.6 °C 58.3 °F /  14.6 °C 30.02in /  1016.5hPa Calm   9mph /  14.5km/h 45% 0.00in /  0mm 896 W/m2
12:09 81.7 °F /  27.6 °C 59.9 °F /  15.5 °C 30.02in /  1016.5hPa NNW 1.6mph /  2.6km/h 7mph /  11.3km/h 47.6% 0.00in /  0mm 988 W/m2
12:14 82.1 °F /  27.8 °C 60.1 °F /  15.6 °C 30.02in /  1016.5hPa NNE 0.5mph /  0.8km/h 7mph /  11.3km/h 47.4% 0.00in /  0mm 930 W/m2
12:19 82.1 °F /  27.8 °C 59.4 °F /  15.2 °C 30.02in /  1016.5hPa ENE 1mph /  1.6km/h 7mph /  11.3km/h 46.2% 0.00in /  0mm 905 W/m2
12:24 82.2 °F /  27.9 °C 59.3 °F /  15.2 °C 30.02in /  1016.5hPa NE 1.9mph /  3.1km/h 7mph /  11.3km/h 45.8% 0.00in /  0mm 881 W/m2
12:29 82.3 °F /  27.9 °C 57.9 °F /  14.4 °C 30.01in /  1016.1hPa Calm   7mph /  11.3km/h 43.4% 0.00in /  0mm 935 W/m2
12:34 82.3 °F /  27.9 °C 58.7 °F /  14.8 °C 30.01in /  1016.1hPa NE 0.8mph /  1.3km/h 7mph /  11.3km/h 44.9% 0.00in /  0mm 1002 W/m2
12:39 82.5 °F /  28.1 °C 59.6 °F /  15.3 °C 30.01in /  1016.1hPa ENE 0.5mph /  0.8km/h 7mph /  11.3km/h 46.1% 0.00in /  0mm 1000 W/m2
12:44 82.4 °F /  28 °C 58.6 °F /  14.8 °C 30.01in /  1016.1hPa East 1.8mph /  2.9km/h 7mph /  11.3km/h 44.4% 0.00in /  0mm 1000 W/m2
12:49 82.3 °F /  27.9 °C 58.9 °F /  14.9 °C 30.01in /  1016.1hPa ENE 1.2mph /  1.9km/h 7mph /  11.3km/h 45% 0.00in /  0mm 1037 W/m2
12:54 82.5 °F /  28.1 °C 58 °F /  14.4 °C 30.01in /  1016.1hPa ENE 0.2mph /  0.3km/h 7mph /  11.3km/h 43.3% 0.00in /  0mm 912 W/m2
12:59 82.6 °F /  28.1 °C 58.4 °F /  14.7 °C 30.01in /  1016.1hPa ENE 0.4mph /  0.6km/h 7mph /  11.3km/h 43.8% 0.00in /  0mm 1002 W/m2
13:04 82.6 °F /  28.1 °C 58.7 °F /  14.8 °C 30.01in /  1016.1hPa NE 0.7mph /  1.1km/h 7mph /  11.3km/h 44.3% 0.00in /  0mm 1000 W/m2
13:09 82.8 °F /  28.2 °C 59.6 °F /  15.3 °C 30.00in /  1015.8hPa NE 1.9mph /  3.1km/h 7mph /  11.3km/h 45.5% 0.00in /  0mm 1009 W/m2
13:14 83.1 °F /  28.4 °C 58.8 °F /  14.9 °C 30.00in /  1015.8hPa NE 1.2mph /  1.9km/h 7mph /  11.3km/h 43.8% 0.00in /  0mm 1007 W/m2
13:19 83.2 °F /  28.4 °C 57.5 °F /  14.2 °C 30.00in /  1015.8hPa NNE 1.3mph /  2.1km/h 7mph /  11.3km/h 41.7% 0.00in /  0mm 1011 W/m2
13:24 83.2 °F /  28.4 °C 58.6 °F /  14.8 °C 30.00in /  1015.8hPa NNE 0.1mph /  0.2km/h 7mph /  11.3km/h 43.4% 0.00in /  0mm 1013 W/m2
13:29 83.4 °F /  28.6 °C 59.1 °F /  15.1 °C 30.00in /  1015.8hPa NE 1.4mph /  2.3km/h 7mph /  11.3km/h 43.8% 0.00in /  0mm 1016 W/m2
13:34 83.8 °F /  28.8 °C 59.5 °F /  15.3 °C 30.00in /  1015.8hPa ENE 1.7mph /  2.7km/h 7mph /  11.3km/h 43.8% 0.00in /  0mm 1014 W/m2
13:39 83.8 °F /  28.8 °C 58.7 °F /  14.8 °C 30.00in /  1015.8hPa NE 0.4mph /  0.6km/h 5mph /  8km/h 42.6% 0.00in /  0mm 1005 W/m2
13:44 83.7 °F /  28.7 °C 58.3 °F /  14.6 °C 30.00in /  1015.8hPa ENE 0.8mph /  1.3km/h 5mph /  8km/h 42.2% 0.00in /  0mm 1030 W/m2
13:49 83.2 °F /  28.4 °C 58.3 °F /  14.6 °C 30.00in /  1015.8hPa East 1.6mph /  2.6km/h 10mph /  16.1km/h 42.7% 0.00in /  0mm 1039 W/m2
13:54 83.1 °F /  28.4 °C 59.2 °F /  15.1 °C 30.00in /  1015.8hPa NE 0.7mph /  1.1km/h 10mph /  16.1km/h 44.4% 0.00in /  0mm 921 W/m2
13:59 83.1 °F /  28.4 °C 58.4 °F /  14.7 °C 30.00in /  1015.8hPa NE 1.8mph /  2.9km/h 10mph /  16.1km/h 43.2% 0.00in /  0mm 842 W/m2
14:04 83.1 °F /  28.4 °C 58.3 °F /  14.6 °C 30.00in /  1015.8hPa ENE 0.3mph /  0.5km/h 10mph /  16.1km/h 43.1% 0.00in /  0mm 744 W/m2
14:09 82.9 °F /  28.3 °C 58.2 °F /  14.6 °C 29.99in /  1015.5hPa NE 0.5mph /  0.8km/h 4mph /  6.4km/h 43.1% 0.00in /  0mm 956 W/m2
14:14 82.9 °F /  28.3 °C 58.7 °F /  14.8 °C 29.99in /  1015.5hPa NE 0.4mph /  0.6km/h 4mph /  6.4km/h 43.9% 0.00in /  0mm 925 W/m2
14:19 82.9 °F /  28.3 °C 58.4 °F /  14.7 °C 29.99in /  1015.5hPa NE 0.3mph /  0.5km/h 4mph /  6.4km/h 43.4% 0.00in /  0mm 661 W/m2
14:24 82.8 °F /  28.2 °C 57.4 °F /  14.1 °C 29.99in /  1015.5hPa NE 0.2mph /  0.3km/h 4mph /  6.4km/h 42% 0.00in /  0mm 701 W/m2
14:29 82.8 °F /  28.2 °C 59.7 °F /  15.4 °C 29.99in /  1015.5hPa Calm   4mph /  6.4km/h 45.6% 0.00in /  0mm 724 W/m2
14:34 82.8 °F /  28.2 °C 58.7 °F /  14.8 °C 29.99in /  1015.5hPa NE 0.2mph /  0.3km/h 4mph /  6.4km/h 44.1% 0.00in /  0mm 821 W/m2
14:39 82.9 °F /  28.3 °C 58.5 °F /  14.7 °C 29.99in /  1015.5hPa NE 0.4mph /  0.6km/h 4mph /  6.4km/h 43.6% 0.00in /  0mm 679 W/m2
14:44 82.7 °F /  28.2 °C 57.2 °F /  14 °C 29.99in /  1015.5hPa NE 0.8mph /  1.3km/h 4mph /  6.4km/h 41.8% 0.00in /  0mm 494 W/m2
14:49 82.7 °F /  28.2 °C 59.3 °F /  15.2 °C 29.99in /  1015.5hPa NNW 1.4mph /  2.3km/h 6mph /  9.7km/h 45.2% 0.00in /  0mm 919 W/m2
14:54 82.7 °F /  28.2 °C 58.5 °F /  14.7 °C 29.99in /  1015.5hPa WNW 1.5mph /  2.4km/h 6mph /  9.7km/h 43.8% 0.00in /  0mm 895 W/m2
14:59 82.9 °F /  28.3 °C 58.8 °F /  14.9 °C 29.99in /  1015.5hPa WNW 0.8mph /  1.3km/h 6mph /  9.7km/h 44.2% 0.00in /  0mm 777 W/m2
15:04 82.9 °F /  28.3 °C 57.4 °F /  14.1 °C 29.99in /  1015.5hPa WNW 0.7mph /  1.1km/h 6mph /  9.7km/h 41.9% 0.00in /  0mm 858 W/m2
15:09 83.1 °F /  28.4 °C 58.6 °F /  14.8 °C 29.99in /  1015.5hPa WNW 0.2mph /  0.3km/h 5mph /  8km/h 43.6% 0.00in /  0mm 835 W/m2
15:14 83.4 °F /  28.6 °C 59.1 °F /  15.1 °C 29.99in /  1015.5hPa WNW 1mph /  1.6km/h 7mph /  11.3km/h 43.9% 0.00in /  0mm 671 W/m2
15:19 83.5 °F /  28.6 °C 59.5 °F /  15.3 °C 29.99in /  1015.5hPa WNW 1.4mph /  2.3km/h 7mph /  11.3km/h 44.4% 0.00in /  0mm 758 W/m2
15:24 83.6 °F /  28.7 °C 58.7 °F /  14.8 °C 29.99in /  1015.5hPa WNW 1.2mph /  1.9km/h 7mph /  11.3km/h 43% 0.00in /  0mm 856 W/m2
15:29 83.7 °F /  28.7 °C 59.3 °F /  15.2 °C 29.99in /  1015.5hPa WNW 0.9mph /  1.4km/h 7mph /  11.3km/h 43.7% 0.00in /  0mm 761 W/m2
15:34 83.9 °F /  28.8 °C 59.7 °F /  15.4 °C 29.98in /  1015.1hPa WNW 1.5mph /  2.4km/h 9mph /  14.5km/h 44% 0.00in /  0mm 649 W/m2
15:39 83.8 °F /  28.8 °C 59.5 °F /  15.3 °C 29.98in /  1015.1hPa WNW 1.3mph /  2.1km/h 9mph /  14.5km/h 43.8% 0.00in /  0mm 802 W/m2
15:44 83.7 °F /  28.7 °C 58.6 °F /  14.8 °C 29.98in /  1015.1hPa West 2.1mph /  3.4km/h 10mph /  16.1km/h 42.7% 0.00in /  0mm 809 W/m2
15:49 83.7 °F /  28.7 °C 59.1 °F /  15.1 °C 29.97in /  1014.8hPa West 0.9mph /  1.4km/h 10mph /  16.1km/h 43.5% 0.00in /  0mm 802 W/m2
15:54 84 °F /  28.9 °C 59.7 °F /  15.4 °C 29.97in /  1014.8hPa West 0.7mph /  1.1km/h 10mph /  16.1km/h 43.9% 0.00in /  0mm 796 W/m2
15:59 84.2 °F /  29 °C 58.3 °F /  14.6 °C 29.97in /  1014.8hPa West 0.8mph /  1.3km/h 10mph /  16.1km/h 41.5% 0.00in /  0mm 788 W/m2
16:00 84.3 °F /  29.1 °C 58.7 °F /  14.8 °C 29.97in /  1014.8hPa West 2mph /  3.2km/h 10mph /  16.1km/h 42% 0.00in /  0mm 761 W/m2
16:09 84.2 °F /  29 °C 58.3 °F /  14.6 °C 29.97in /  1014.8hPa WNW 0.4mph /  0.6km/h 4mph /  6.4km/h 41.5% 0.00in /  0mm 708 W/m2
16:14 84.1 °F /  28.9 °C 58.3 °F /  14.6 °C 29.97in /  1014.8hPa WNW 0.8mph /  1.3km/h 4mph /  6.4km/h 41.7% 0.00in /  0mm 601 W/m2
16:19 83.9 °F /  28.8 °C 57.9 °F /  14.4 °C 29.97in /  1014.8hPa WNW 0.9mph /  1.4km/h 4mph /  6.4km/h 41.3% 0.00in /  0mm 69 W/m2
16:24 83.8 °F /  28.8 °C 57.8 °F /  14.3 °C 29.97in /  1014.8hPa WNW 0.1mph /  0.2km/h 4mph /  6.4km/h 41.2% 0.00in /  0mm 56 W/m2
16:29 83.6 °F /  28.7 °C 56.7 °F /  13.7 °C 29.96in /  1014.4hPa WNW 0.3mph /  0.5km/h 4mph /  6.4km/h 39.9% 0.00in /  0mm 49 W/m2
16:34 83.4 °F /  28.6 °C 57.8 °F /  14.3 °C 29.96in /  1014.4hPa WNW 0.8mph /  1.3km/h 5mph /  8km/h 41.8% 0.00in /  0mm 51 W/m2
16:39 83.2 °F /  28.4 °C 56.8 °F /  13.8 °C 29.96in /  1014.4hPa West 0.4mph /  0.6km/h 5mph /  8km/h 40.6% 0.00in /  0mm 51 W/m2
16:44 83.2 °F /  28.4 °C 57.1 °F /  13.9 °C 29.96in /  1014.4hPa West 0.2mph /  0.3km/h 5mph /  8km/h 41.1% 0.00in /  0mm 51 W/m2
16:49 83.2 °F /  28.4 °C 56.6 °F /  13.7 °C 29.96in /  1014.4hPa West 0.8mph /  1.3km/h 5mph /  8km/h 40.3% 0.00in /  0mm 49 W/m2
16:54 83.1 °F /  28.4 °C 55.1 °F /  12.8 °C 29.97in /  1014.8hPa West 0.2mph /  0.3km/h 5mph /  8km/h 38.4% 0.00in /  0mm 46 W/m2
16:59 83 °F /  28.3 °C 55.9 °F /  13.3 °C 29.96in /  1014.4hPa West 0.3mph /  0.5km/h 5mph /  8km/h 39.5% 0.00in /  0mm 44 W/m2
17:04 83.1 °F /  28.4 °C 55.9 °F /  13.3 °C 29.97in /  1014.8hPa West 1.2mph /  1.9km/h 5mph /  8km/h 39.5% 0.00in /  0mm 44 W/m2
17:09 83.1 °F /  28.4 °C 55.6 °F /  13.1 °C 29.96in /  1014.4hPa West 0.4mph /  0.6km/h 4mph /  6.4km/h 39% 0.00in /  0mm 42 W/m2
17:14 83 °F /  28.3 °C 54.2 °F /  12.3 °C 29.96in /  1014.4hPa West 0.1mph /  0.2km/h 4mph /  6.4km/h 37.2% 0.00in /  0mm 39 W/m2
17:19 82.8 °F /  28.2 °C 54.5 °F /  12.5 °C 29.96in /  1014.4hPa West 1.5mph /  2.4km/h 4mph /  6.4km/h 37.8% 0.00in /  0mm 39 W/m2
17:24 82.7 °F /  28.2 °C 54.9 °F /  12.7 °C 29.97in /  1014.8hPa West 0.3mph /  0.5km/h 4mph /  6.4km/h 38.5% 0.00in /  0mm 39 W/m2
17:29 82.5 °F /  28.1 °C 57.4 °F /  14.1 °C 29.97in /  1014.8hPa WSW 1mph /  1.6km/h 9mph /  14.5km/h 42.5% 0.00in /  0mm 35 W/m2
17:34 82 °F /  27.8 °C 58.9 °F /  14.9 °C 29.97in /  1014.8hPa SSW 0.1mph /  0.2km/h 9mph /  14.5km/h 45.5% 0.00in /  0mm 35 W/m2
17:39 81.3 °F /  27.4 °C 59.3 °F /  15.2 °C 29.97in /  1014.8hPa SSW 0.3mph /  0.5km/h 2mph /  3.2km/h 47.1% 0.00in /  0mm 44 W/m2
17:44 80.6 °F /  27 °C 58.5 °F /  14.7 °C 29.96in /  1014.4hPa SSW 0.2mph /  0.3km/h 2mph /  3.2km/h 47.1% 0.00in /  0mm 46 W/m2
17:49 79.9 °F /  26.6 °C 58.6 °F /  14.8 °C 29.96in /  1014.4hPa SSW 0.5mph /  0.8km/h 4mph /  6.4km/h 48.2% 0.00in /  0mm 46 W/m2
17:54 79.4 °F /  26.3 °C 58 °F /  14.4 °C 29.96in /  1014.4hPa South 0.8mph /  1.3km/h 5mph /  8km/h 48% 0.00in /  0mm 40 W/m2
17:59 78.8 °F /  26 °C 57.7 °F /  14.3 °C 29.96in /  1014.4hPa South 0.5mph /  0.8km/h 5mph /  8km/h 48.3% 0.00in /  0mm 37 W/m2
18:04 78.3 °F /  25.7 °C 57.3 °F /  14.1 °C 29.97in /  1014.8hPa South 1.1mph /  1.8km/h 5mph /  8km/h 48.3% 0.00in /  0mm 37 W/m2
18:09 77.9 °F /  25.5 °C 56.8 °F /  13.8 °C 29.97in /  1014.8hPa South 0.7mph /  1.1km/h 5mph /  8km/h 48.3% 0.00in /  0mm 37 W/m2
18:14 77.5 °F /  25.3 °C 57.4 °F /  14.1 °C 29.97in /  1014.8hPa South 0.7mph /  1.1km/h 5mph /  8km/h 49.9% 0.00in /  0mm 35 W/m2
18:19 77.1 °F /  25.1 °C 56.7 °F /  13.7 °C 29.97in /  1014.8hPa South 1.2mph /  1.9km/h 5mph /  8km/h 49.3% 0.00in /  0mm 35 W/m2
18:24 76.7 °F /  24.8 °C 56.9 °F /  13.8 °C 29.97in /  1014.8hPa South 0.8mph /  1.3km/h 5mph /  8km/h 50.4% 0.00in /  0mm 33 W/m2
18:29 76.4 °F /  24.7 °C 57.1 °F /  13.9 °C 29.97in /  1014.8hPa South 0.3mph /  0.5km/h 5mph /  8km/h 51.2% 0.00in /  0mm 33 W/m2
18:34 76.2 °F /  24.6 °C 57.2 °F /  14 °C 29.98in /  1015.1hPa South 0.6mph /  1km/h 5mph /  8km/h 51.8% 0.00in /  0mm 32 W/m2
18:39 76 °F /  24.4 °C 57.2 °F /  14 °C 29.98in /  1015.1hPa SW 0.5mph /  0.8km/h 6mph /  9.7km/h 52.3% 0.00in /  0mm 30 W/m2
18:44 75.7 °F /  24.3 °C 57 °F /  13.9 °C 29.98in /  1015.1hPa SSW 1mph /  1.6km/h 6mph /  9.7km/h 52.2% 0.00in /  0mm 30 W/m2
18:49 75.4 °F /  24.1 °C 57.1 °F /  13.9 °C 29.98in /  1015.1hPa SSW 0.1mph /  0.2km/h 6mph /  9.7km/h 52.9% 0.00in /  0mm 28 W/m2
18:54 75.1 °F /  23.9 °C 56.7 °F /  13.7 °C 29.99in /  1015.5hPa South 0.6mph /  1km/h 6mph /  9.7km/h 52.6% 0.00in /  0mm 28 W/m2
18:59 74.7 °F /  23.7 °C 56.6 °F /  13.7 °C 29.99in /  1015.5hPa South 0.6mph /  1km/h 6mph /  9.7km/h 53.3% 0.00in /  0mm 26 W/m2
19:04 74.2 °F /  23.4 °C 56 °F /  13.3 °C 29.99in /  1015.5hPa SSW 0.7mph /  1.1km/h 6mph /  9.7km/h 53% 0.00in /  0mm 26 W/m2
19:09 73.8 °F /  23.2 °C 55.7 °F /  13.2 °C 29.99in /  1015.5hPa South 0.6mph /  1km/h 6mph /  9.7km/h 53.1% 0.00in /  0mm 25 W/m2
19:14 73.4 °F /  23 °C 55.7 °F /  13.2 °C 29.99in /  1015.5hPa South 0.4mph /  0.6km/h 6mph /  9.7km/h 53.9% 0.00in /  0mm 25 W/m2
19:19 72.9 °F /  22.7 °C 54.8 °F /  12.7 °C 30.00in /  1015.8hPa South 0.7mph /  1.1km/h 6mph /  9.7km/h 53% 0.00in /  0mm 23 W/m2
19:24 72.4 °F /  22.4 °C 54.6 °F /  12.6 °C 30.00in /  1015.8hPa South 0.5mph /  0.8km/h 6mph /  9.7km/h 53.5% 0.00in /  0mm 21 W/m2
19:29 71.9 °F /  22.2 °C 53.8 °F /  12.1 °C 30.00in /  1015.8hPa South 1.2mph /  1.9km/h 6mph /  9.7km/h 52.8% 0.00in /  0mm 21 W/m2
19:34 71.5 °F /  21.9 °C 52.8 °F /  11.6 °C 30.00in /  1015.8hPa South 1.3mph /  2.1km/h 6mph /  9.7km/h 51.7% 0.00in /  0mm 19 W/m2
19:39 71 °F /  21.7 °C 52.5 °F /  11.4 °C 30.00in /  1015.8hPa South 1mph /  1.6km/h 6mph /  9.7km/h 52% 0.00in /  0mm 19 W/m2
19:44 70.4 °F /  21.3 °C 51.1 °F /  10.6 °C 30.00in /  1015.8hPa South 1mph /  1.6km/h 6mph /  9.7km/h 50.3% 0.00in /  0mm 16 W/m2
19:49 70 °F /  21.1 °C 51 °F /  10.6 °C 30.01in /  1016.1hPa SSE 1.1mph /  1.8km/h 6mph /  9.7km/h 50.9% 0.00in /  0mm 14 W/m2
19:54 69.6 °F /  20.9 °C 51.1 °F /  10.6 °C 30.01in /  1016.1hPa South 0.3mph /  0.5km/h 6mph /  9.7km/h 51.8% 0.00in /  0mm 12 W/m2
19:59 69.2 °F /  20.7 °C 50.9 °F /  10.5 °C 30.01in /  1016.1hPa South 0.9mph /  1.4km/h 6mph /  9.7km/h 52% 0.00in /  0mm 11 W/m2
20:09 68.5 °F /  20.3 °C 50.6 °F /  10.3 °C 30.02in /  1016.5hPa South 1.5mph /  2.4km/h 6mph /  9.7km/h 52.7% 0.00in /  0mm 7 W/m2
20:14 68.2 °F /  20.1 °C 50.8 °F /  10.4 °C 30.02in /  1016.5hPa South 0.9mph /  1.4km/h 6mph /  9.7km/h 53.8% 0.00in /  0mm 5 W/m2
20:19 67.9 °F /  19.9 °C 51.1 °F /  10.6 °C 30.02in /  1016.5hPa South 0.2mph /  0.3km/h 6mph /  9.7km/h 54.8% 0.00in /  0mm 0 W/m2
20:24 67.6 °F /  19.8 °C 51.4 °F /  10.8 °C 30.02in /  1016.5hPa SSW 0.9mph /  1.4km/h 9mph /  14.5km/h 56.1% 0.00in /  0mm 0 W/m2
20:29 67.3 °F /  19.6 °C 51.5 °F /  10.8 °C 30.03in /  1016.8hPa SSW 0.5mph /  0.8km/h 9mph /  14.5km/h 56.8% 0.00in /  0mm 0 W/m2
20:34 67 °F /  19.4 °C 51.5 °F /  10.8 °C 30.03in /  1016.8hPa South 0.3mph /  0.5km/h 9mph /  14.5km/h 57.4% 0.00in /  0mm 0 W/m2
20:39 66.7 °F /  19.3 °C 51.5 °F /  10.8 °C 30.03in /  1016.8hPa South 0.5mph /  0.8km/h 4mph /  6.4km/h 58% 0.00in /  0mm 0 W/m2
20:44 66.5 °F /  19.2 °C 51.7 °F /  10.9 °C 30.03in /  1016.8hPa South 0.1mph /  0.2km/h 4mph /  6.4km/h 58.9% 0.00in /  0mm 0 W/m2
20:49 66.2 °F /  19 °C 51.6 °F /  10.9 °C 30.03in /  1016.8hPa Calm   4mph /  6.4km/h 59.2% 0.00in /  0mm 0 W/m2
20:54 66 °F /  18.9 °C 51.8 °F /  11 °C 30.03in /  1016.8hPa South 0.1mph /  0.2km/h 4mph /  6.4km/h 60% 0.00in /  0mm 0 W/m2
20:59 65.8 °F /  18.8 °C 51.6 °F /  10.9 °C 30.03in /  1016.8hPa South 0.1mph /  0.2km/h 4mph /  6.4km/h 60% 0.00in /  0mm 0 W/m2
21:04 65.6 °F /  18.7 °C 51.7 °F /  10.9 °C 30.04in /  1017.2hPa Calm   4mph /  6.4km/h 60.7% 0.00in /  0mm 0 W/m2
21:09 65.4 °F /  18.6 °C 51.7 °F /  10.9 °C 30.04in /  1017.2hPa Calm   2mph /  3.2km/h 61% 0.00in /  0mm 0 W/m2
21:14 65.2 °F /  18.4 °C 51.8 °F /  11 °C 30.04in /  1017.2hPa South 0.1mph /  0.2km/h 2mph /  3.2km/h 61.7% 0.00in /  0mm 0 W/m2
21:19 65 °F /  18.3 °C 51.8 °F /  11 °C 30.04in /  1017.2hPa Calm   2mph /  3.2km/h 62.2% 0.00in /  0mm 0 W/m2
21:24 64.9 °F /  18.3 °C 52 °F /  11.1 °C 30.05in /  1017.5hPa Calm   2mph /  3.2km/h 63% 0.00in /  0mm 0 W/m2
21:29 64.7 °F /  18.2 °C 51.7 °F /  10.9 °C 30.05in /  1017.5hPa Calm   2mph /  3.2km/h 62.6% 0.00in /  0mm 0 W/m2
21:34 64.5 °F /  18.1 °C 51.5 °F /  10.8 °C 30.05in /  1017.5hPa Calm   2mph /  3.2km/h 62.7% 0.00in /  0mm 0 W/m2
21:39 64.3 °F /  17.9 °C 51.4 °F /  10.8 °C 30.05in /  1017.5hPa Calm   1mph /  1.6km/h 63% 0.00in /  0mm 0 W/m2
21:44 64.1 °F /  17.8 °C 51.5 °F /  10.8 °C 30.05in /  1017.5hPa South 0.1mph /  0.2km/h 1mph /  1.6km/h 63.6% 0.00in /  0mm 0 W/m2
21:49 64 °F /  17.8 °C 51.6 °F /  10.9 °C 30.05in /  1017.5hPa Calm   1mph /  1.6km/h 64% 0.00in /  0mm 0 W/m2
21:54 63.8 °F /  17.7 °C 51.4 °F /  10.8 °C 30.05in /  1017.5hPa Calm   1mph /  1.6km/h 64% 0.00in /  0mm 0 W/m2
21:59 63.7 °F /  17.6 °C 51.3 °F /  10.7 °C 30.05in /  1017.5hPa Calm   1mph /  1.6km/h 64% 0.00in /  0mm 0 W/m2
22:04 63.5 °F /  17.5 °C 51.5 °F /  10.8 °C 30.05in /  1017.5hPa Calm   1mph /  1.6km/h 64.9% 0.00in /  0mm 0 W/m2
22:09 63.3 °F /  17.4 °C 51.4 °F /  10.8 °C 30.06in /  1017.8hPa Calm     65% 0.00in /  0mm 0 W/m2
22:14 63.2 °F /  17.3 °C 51.2 °F /  10.7 °C 30.06in /  1017.8hPa Calm     65% 0.00in /  0mm 0 W/m2
22:19 63 °F /  17.2 °C 51.3 °F /  10.7 °C 30.06in /  1017.8hPa Calm     65.5% 0.00in /  0mm 0 W/m2
22:24 62.9 °F /  17.2 °C 51.4 °F /  10.8 °C 30.06in /  1017.8hPa Calm     66% 0.00in /  0mm 0 W/m2
22:29 62.7 °F /  17.1 °C 51.2 °F /  10.7 °C 30.06in /  1017.8hPa Calm     66% 0.00in /  0mm 0 W/m2
22:34 62.6 °F /  17 °C 51.1 °F /  10.6 °C 30.06in /  1017.8hPa Calm     66.2% 0.00in /  0mm 0 W/m2
22:39 62.5 °F /  16.9 °C 51.4 °F /  10.8 °C 30.06in /  1017.8hPa Calm     67% 0.00in /  0mm 0 W/m2
22:44 62.3 °F /  16.8 °C 51.4 °F /  10.8 °C 30.07in /  1018.2hPa Calm     67.4% 0.00in /  0mm 0 W/m2
22:49 62.2 °F /  16.8 °C 51.2 °F /  10.7 °C 30.07in /  1018.2hPa Calm     67.1% 0.00in /  0mm 0 W/m2
22:54 62.1 °F /  16.7 °C 51.1 °F /  10.6 °C 30.07in /  1018.2hPa Calm     67.4% 0.00in /  0mm 0 W/m2
22:59 61.9 °F /  16.6 °C 51.3 °F /  10.7 °C 30.07in /  1018.2hPa Calm     68% 0.00in /  0mm 0 W/m2
23:04 61.8 °F /  16.6 °C 51.2 °F /  10.7 °C 30.07in /  1018.2hPa Calm     68.2% 0.00in /  0mm 0 W/m2
23:09 61.7 °F /  16.5 °C 51.4 °F /  10.8 °C 30.07in /  1018.2hPa Calm     69% 0.00in /  0mm 0 W/m2
23:14 61.5 °F /  16.4 °C 51.7 °F /  10.9 °C 30.07in /  1018.2hPa Calm     70% 0.00in /  0mm 0 W/m2
23:19 61.4 °F /  16.3 °C 51.6 °F /  10.9 °C 30.07in /  1018.2hPa Calm     70% 0.00in /  0mm 0 W/m2
23:24 61.3 °F /  16.3 °C 51.7 °F /  10.9 °C 30.07in /  1018.2hPa Calm     70.7% 0.00in /  0mm 0 W/m2
23:29 61.2 °F /  16.2 °C 51.5 °F /  10.8 °C 30.07in /  1018.2hPa South 0.2mph /  0.3km/h 2mph /  3.2km/h 70.4% 0.00in /  0mm 0 W/m2
23:34 61 °F /  16.1 °C 51.3 °F /  10.7 °C 30.07in /  1018.2hPa South 0.1mph /  0.2km/h 2mph /  3.2km/h 70.3% 0.00in /  0mm 0 W/m2
23:39 60.9 °F /  16.1 °C 51.1 °F /  10.6 °C 30.07in /  1018.2hPa South 0.1mph /  0.2km/h 3mph /  4.8km/h 70% 0.00in /  0mm 0 W/m2
23:44 60.8 °F /  16 °C 50.9 °F /  10.5 °C 30.08in /  1018.5hPa South 0.2mph /  0.3km/h 3mph /  4.8km/h 70% 0.00in /  0mm 0 W/m2
23:49 60.7 °F /  15.9 °C 50.8 °F /  10.4 °C 30.08in /  1018.5hPa South 0.3mph /  0.5km/h 3mph /  4.8km/h 70% 0.00in /  0mm 0 W/m2
23:54 60.5 °F /  15.8 °C 50.7 °F /  10.4 °C 30.08in /  1018.5hPa Calm   3mph /  4.8km/h 70% 0.00in /  0mm 0 W/m2
23:59 60.5 °F /  15.8 °C 50.7 °F /  10.4 °C 30.08in /  1018.5hPa Calm   3mph /  4.8km/h 70.2% 0.00in /  0mm 0 W/m2
Hartford County Weather
Compliments of Weather Underground - 2 mb